sensor_id;sensor_type;location;lat;lon;timestamp;pressure;altitude;pressure_sealevel;temperature;humidity
36454;BME280;22478;51.740;-1.314;2022-12-18T00:01:27;100832.94;;;-6.00;100.00
36454;BME280;22478;51.740;-1.314;2022-12-18T00:03:55;100828.09;;;-5.40;100.00
36454;BME280;22478;51.740;-1.314;2022-12-18T00:06:23;100827.14;;;-6.68;100.00
36454;BME280;22478;51.740;-1.314;2022-12-18T00:08:51;100820.73;;;-6.50;100.00
36454;BME280;22478;51.740;-1.314;2022-12-18T00:11:20;100814.02;;;-7.02;100.00
36454;BME280;22478;51.740;-1.314;2022-12-18T00:13:48;100816.11;;;-7.03;100.00
36454;BME280;22478;51.740;-1.314;2022-12-18T00:16:17;100814.09;;;-7.67;100.00
36454;BME280;22478;51.740;-1.314;2022-12-18T00:18:44;100817.77;;;-6.59;100.00
36454;BME280;22478;51.740;-1.314;2022-12-18T00:21:13;100813.17;;;-6.28;100.00
36454;BME280;22478;51.740;-1.314;2022-12-18T00:23:42;100810.98;;;-6.11;100.00
36454;BME280;22478;51.740;-1.314;2022-12-18T00:26:16;100806.34;;;-4.90;100.00
36454;BME280;22478;51.740;-1.314;2022-12-18T00:28:45;100798.63;;;-5.48;100.00
36454;BME280;22478;51.740;-1.314;2022-12-18T00:31:14;100807.33;;;-5.61;100.00
36454;BME280;22478;51.740;-1.314;2022-12-18T00:33:42;100808.10;;;-6.05;100.00
36454;BME280;22478;51.740;-1.314;2022-12-18T00:36:12;100804.54;;;-5.83;100.00
36454;BME280;22478;51.740;-1.314;2022-12-18T00:38:39;100791.73;;;-6.36;100.00
36454;BME280;22478;51.740;-1.314;2022-12-18T00:41:08;100794.81;;;-5.78;100.00
36454;BME280;22478;51.740;-1.314;2022-12-18T00:43:35;100791.80;;;-5.17;100.00
36454;BME280;22478;51.740;-1.314;2022-12-18T00:46:04;100799.63;;;-7.34;100.00
36454;BME280;22478;51.740;-1.314;2022-12-18T00:48:31;100795.34;;;-5.91;100.00
36454;BME280;22478;51.740;-1.314;2022-12-18T00:50:59;100798.62;;;-7.20;100.00
36454;BME280;22478;51.740;-1.314;2022-12-18T00:53:26;100796.82;;;-6.15;100.00
36454;BME280;22478;51.740;-1.314;2022-12-18T00:55:52;100795.88;;;-5.76;100.00
36454;BME280;22478;51.740;-1.314;2022-12-18T00:58:19;100797.61;;;-6.88;100.00
36454;BME280;22478;51.740;-1.314;2022-12-18T01:00:46;100795.22;;;-5.89;100.00
36454;BME280;22478;51.740;-1.314;2022-12-18T01:03:14;100790.57;;;-5.63;100.00
36454;BME280;22478;51.740;-1.314;2022-12-18T01:05:41;100787.67;;;-6.46;100.00
36454;BME280;22478;51.740;-1.314;2022-12-18T01:08:09;100788.09;;;-5.13;100.00
36454;BME280;22478;51.740;-1.314;2022-12-18T01:10:36;100783.87;;;-6.65;100.00
36454;BME280;22478;51.740;-1.314;2022-12-18T01:13:06;100786.42;;;-7.84;100.00
36454;BME280;22478;51.740;-1.314;2022-12-18T01:15:33;100778.67;;;-6.19;100.00
36454;BME280;22478;51.740;-1.314;2022-12-18T01:18:01;100777.51;;;-6.35;100.00
36454;BME280;22478;51.740;-1.314;2022-12-18T01:20:28;100777.89;;;-6.24;100.00
36454;BME280;22478;51.740;-1.314;2022-12-18T01:22:55;100774.13;;;-5.85;100.00
36454;BME280;22478;51.740;-1.314;2022-12-18T01:25:23;100773.29;;;-6.45;100.00
36454;BME280;22478;51.740;-1.314;2022-12-18T01:27:50;100770.77;;;-6.87;100.00
36454;BME280;22478;51.740;-1.314;2022-12-18T01:30:17;100774.78;;;-5.28;100.00
36454;BME280;22478;51.740;-1.314;2022-12-18T01:32:44;100781.25;;;-5.89;100.00
36454;BME280;22478;51.740;-1.314;2022-12-18T01:35:11;100774.49;;;-7.17;100.00
36454;BME280;22478;51.740;-1.314;2022-12-18T01:37:38;100780.23;;;-6.02;100.00
36454;BME280;22478;51.740;-1.314;2022-12-18T01:40:07;100777.27;;;-5.10;100.00
36454;BME280;22478;51.740;-1.314;2022-12-18T01:42:34;100772.72;;;-5.10;100.00
36454;BME280;22478;51.740;-1.314;2022-12-18T01:45:09;100782.05;;;-7.59;100.00
36454;BME280;22478;51.740;-1.314;2022-12-18T01:47:52;100774.18;;;-5.34;100.00
36454;BME280;22478;51.740;-1.314;2022-12-18T01:50:23;100769.69;;;-5.33;100.00
36454;BME280;22478;51.740;-1.314;2022-12-18T01:52:53;100770.15;;;-5.78;100.00
36454;BME280;22478;51.740;-1.314;2022-12-18T01:55:25;100775.34;;;-5.49;100.00
36454;BME280;22478;51.740;-1.314;2022-12-18T01:57:55;100777.28;;;-5.30;100.00
36454;BME280;22478;51.740;-1.314;2022-12-18T02:00:23;100775.28;;;-4.57;100.00
36454;BME280;22478;51.740;-1.314;2022-12-18T02:02:50;100776.70;;;-4.48;100.00
36454;BME280;22478;51.740;-1.314;2022-12-18T02:05:21;100782.91;;;-5.57;100.00
36454;BME280;22478;51.740;-1.314;2022-12-18T02:07:59;100782.48;;;-5.43;100.00
36454;BME280;22478;51.740;-1.314;2022-12-18T02:10:37;100791.07;;;-8.07;100.00
36454;BME280;22478;51.740;-1.314;2022-12-18T02:13:11;100793.70;;;-7.67;100.00
36454;BME280;22478;51.740;-1.314;2022-12-18T02:15:47;100798.95;;;-7.08;100.00
36454;BME280;22478;51.740;-1.314;2022-12-18T02:18:21;100808.74;;;-7.65;100.00
36454;BME280;22478;51.740;-1.314;2022-12-18T02:20:55;100810.31;;;-6.33;100.00
36454;BME280;22478;51.740;-1.314;2022-12-18T02:23:40;100810.90;;;-6.63;100.00
36454;BME280;22478;51.740;-1.314;2022-12-18T02:26:18;100812.47;;;-6.50;100.00
36454;BME280;22478;51.740;-1.314;2022-12-18T02:28:51;100809.75;;;-5.65;100.00
36454;BME280;22478;51.740;-1.314;2022-12-18T02:31:26;100807.24;;;-5.88;100.00
36454;BME280;22478;51.740;-1.314;2022-12-18T02:34:01;100807.06;;;-6.35;100.00
36454;BME280;22478;51.740;-1.314;2022-12-18T02:36:30;100805.47;;;-6.98;100.00
36454;BME280;22478;51.740;-1.314;2022-12-18T02:39:00;100804.93;;;-4.31;100.00
36454;BME280;22478;51.740;-1.314;2022-12-18T02:41:28;100803.56;;;-4.52;100.00
36454;BME280;22478;51.740;-1.314;2022-12-18T02:44:06;100800.87;;;-5.93;100.00
36454;BME280;22478;51.740;-1.314;2022-12-18T02:46:36;100779.37;;;-4.71;100.00
36454;BME280;22478;51.740;-1.314;2022-12-18T02:49:14;100767.66;;;-4.21;100.00
36454;BME280;22478;51.740;-1.314;2022-12-18T02:51:51;100769.45;;;-4.50;100.00
36454;BME280;22478;51.740;-1.314;2022-12-18T02:54:31;100762.89;;;-4.63;100.00
36454;BME280;22478;51.740;-1.314;2022-12-18T02:57:08;100750.44;;;-4.26;100.00
36454;BME280;22478;51.740;-1.314;2022-12-18T02:59:45;100750.92;;;-5.18;100.00
36454;BME280;22478;51.740;-1.314;2022-12-18T03:02:21;100745.76;;;-4.73;100.00
36454;BME280;22478;51.740;-1.314;2022-12-18T03:04:57;100749.55;;;-6.76;100.00
36454;BME280;22478;51.740;-1.314;2022-12-18T03:07:35;100753.84;;;-7.31;100.00
36454;BME280;22478;51.740;-1.314;2022-12-18T03:10:05;100755.92;;;-6.34;100.00
36454;BME280;22478;51.740;-1.314;2022-12-18T03:12:36;100756.20;;;-6.69;100.00
36454;BME280;22478;51.740;-1.314;2022-12-18T03:15:09;100755.55;;;-6.52;100.00
36454;BME280;22478;51.740;-1.314;2022-12-18T03:17:40;100752.71;;;-6.57;100.00
36454;BME280;22478;51.740;-1.314;2022-12-18T03:20:13;100758.21;;;-7.80;100.00
36454;BME280;22478;51.740;-1.314;2022-12-18T03:22:43;100757.81;;;-8.03;100.00
36454;BME280;22478;51.740;-1.314;2022-12-18T03:25:14;100756.79;;;-8.03;100.00
36454;BME280;22478;51.740;-1.314;2022-12-18T03:27:47;100743.98;;;-7.98;100.00
36454;BME280;22478;51.740;-1.314;2022-12-18T03:30:16;100746.18;;;-8.31;100.00
36454;BME280;22478;51.740;-1.314;2022-12-18T03:32:48;100746.82;;;-8.13;100.00
36454;BME280;22478;51.740;-1.314;2022-12-18T03:35:22;100744.48;;;-7.18;100.00
36454;BME280;22478;51.740;-1.314;2022-12-18T03:37:53;100742.94;;;-7.70;100.00
36454;BME280;22478;51.740;-1.314;2022-12-18T03:40:26;100739.37;;;-7.74;100.00
36454;BME280;22478;51.740;-1.314;2022-12-18T03:42:59;100739.73;;;-8.91;100.00
36454;BME280;22478;51.740;-1.314;2022-12-18T03:45:34;100736.56;;;-7.97;100.00
36454;BME280;22478;51.740;-1.314;2022-12-18T03:48:07;100739.75;;;-8.63;100.00
36454;BME280;22478;51.740;-1.314;2022-12-18T03:50:42;100733.73;;;-8.51;100.00
36454;BME280;22478;51.740;-1.314;2022-12-18T03:53:20;100731.77;;;-7.79;100.00
36454;BME280;22478;51.740;-1.314;2022-12-18T03:55:50;100725.03;;;-7.71;100.00
36454;BME280;22478;51.740;-1.314;2022-12-18T03:58:20;100720.64;;;-7.70;100.00
36454;BME280;22478;51.740;-1.314;2022-12-18T04:00:52;100713.70;;;-7.94;100.00
36454;BME280;22478;51.740;-1.314;2022-12-18T04:03:21;100702.36;;;-7.70;100.00
36454;BME280;22478;51.740;-1.314;2022-12-18T04:05:51;100702.98;;;-7.93;100.00
36454;BME280;22478;51.740;-1.314;2022-12-18T04:08:19;100708.47;;;-7.79;100.00
36454;BME280;22478;51.740;-1.314;2022-12-18T04:10:47;100707.85;;;-7.50;100.00
36454;BME280;22478;51.740;-1.314;2022-12-18T04:13:22;100710.91;;;-8.41;100.00
36454;BME280;22478;51.740;-1.314;2022-12-18T04:15:50;100708.07;;;-7.77;100.00
36454;BME280;22478;51.740;-1.314;2022-12-18T04:18:18;100700.11;;;-7.92;100.00
36454;BME280;22478;51.740;-1.314;2022-12-18T04:20:45;100696.45;;;-6.98;100.00
36454;BME280;22478;51.740;-1.314;2022-12-18T04:23:13;100690.76;;;-7.30;100.00
36454;BME280;22478;51.740;-1.314;2022-12-18T04:25:41;100685.45;;;-7.02;100.00
36454;BME280;22478;51.740;-1.314;2022-12-18T04:28:08;100678.85;;;-7.54;100.00
36454;BME280;22478;51.740;-1.314;2022-12-18T04:30:35;100668.11;;;-6.81;100.00
36454;BME280;22478;51.740;-1.314;2022-12-18T04:33:02;100672.26;;;-6.92;100.00
36454;BME280;22478;51.740;-1.314;2022-12-18T04:35:29;100659.96;;;-7.40;100.00
36454;BME280;22478;51.740;-1.314;2022-12-18T04:37:56;100653.31;;;-7.70;100.00
36454;BME280;22478;51.740;-1.314;2022-12-18T04:40:23;100652.66;;;-7.56;100.00
36454;BME280;22478;51.740;-1.314;2022-12-18T04:42:50;100641.58;;;-7.51;100.00
36454;BME280;22478;51.740;-1.314;2022-12-18T04:45:18;100623.72;;;-8.36;100.00
36454;BME280;22478;51.740;-1.314;2022-12-18T04:47:44;100610.70;;;-7.63;100.00
36454;BME280;22478;51.740;-1.314;2022-12-18T04:50:12;100607.53;;;-7.61;100.00
36454;BME280;22478;51.740;-1.314;2022-12-18T04:52:39;100602.45;;;-7.20;100.00
36454;BME280;22478;51.740;-1.314;2022-12-18T04:55:06;100592.62;;;-6.62;100.00
36454;BME280;22478;51.740;-1.314;2022-12-18T04:57:33;100603.08;;;-7.89;100.00
36454;BME280;22478;51.740;-1.314;2022-12-18T05:00:00;100585.30;;;-7.59;100.00
36454;BME280;22478;51.740;-1.314;2022-12-18T05:02:27;100574.74;;;-7.71;100.00
36454;BME280;22478;51.740;-1.314;2022-12-18T05:04:54;100575.09;;;-7.94;100.00
36454;BME280;22478;51.740;-1.314;2022-12-18T05:07:22;100572.17;;;-8.10;100.00
36454;BME280;22478;51.740;-1.314;2022-12-18T05:09:49;100572.98;;;-6.71;100.00
36454;BME280;22478;51.740;-1.314;2022-12-18T05:12:16;100570.65;;;-8.32;100.00
36454;BME280;22478;51.740;-1.314;2022-12-18T05:14:44;100561.98;;;-6.53;100.00
36454;BME280;22478;51.740;-1.314;2022-12-18T05:17:11;100557.64;;;-7.36;100.00
36454;BME280;22478;51.740;-1.314;2022-12-18T05:19:38;100549.75;;;-7.22;100.00
36454;BME280;22478;51.740;-1.314;2022-12-18T05:22:10;100560.16;;;-6.85;100.00
36454;BME280;22478;51.740;-1.314;2022-12-18T05:24:39;100572.43;;;-6.91;100.00
36454;BME280;22478;51.740;-1.314;2022-12-18T05:27:06;100584.13;;;-8.14;100.00
36454;BME280;22478;51.740;-1.314;2022-12-18T05:29:33;100572.31;;;-6.58;100.00
36454;BME280;22478;51.740;-1.314;2022-12-18T05:32:01;100563.54;;;-7.45;100.00
36454;BME280;22478;51.740;-1.314;2022-12-18T05:34:29;100562.95;;;-7.61;100.00
36454;BME280;22478;51.740;-1.314;2022-12-18T05:36:56;100559.27;;;-7.19;100.00
36454;BME280;22478;51.740;-1.314;2022-12-18T05:39:23;100563.10;;;-7.64;100.00
36454;BME280;22478;51.740;-1.314;2022-12-18T05:41:50;100554.31;;;-7.37;100.00
36454;BME280;22478;51.740;-1.314;2022-12-18T05:44:18;100556.51;;;-7.56;100.00
36454;BME280;22478;51.740;-1.314;2022-12-18T05:46:45;100541.97;;;-7.57;100.00
36454;BME280;22478;51.740;-1.314;2022-12-18T05:49:12;100535.78;;;-7.17;100.00
36454;BME280;22478;51.740;-1.314;2022-12-18T05:51:39;100528.18;;;-7.18;100.00
36454;BME280;22478;51.740;-1.314;2022-12-18T05:54:07;100519.18;;;-7.23;100.00
36454;BME280;22478;51.740;-1.314;2022-12-18T05:56:34;100519.80;;;-6.87;100.00
36454;BME280;22478;51.740;-1.314;2022-12-18T05:59:01;100516.09;;;-6.82;100.00
36454;BME280;22478;51.740;-1.314;2022-12-18T06:01:28;100513.03;;;-6.84;100.00
36454;BME280;22478;51.740;-1.314;2022-12-18T06:03:55;100506.76;;;-7.26;100.00
36454;BME280;22478;51.740;-1.314;2022-12-18T06:06:24;100500.56;;;-7.32;100.00
36454;BME280;22478;51.740;-1.314;2022-12-18T06:08:53;100494.40;;;-7.44;100.00
36454;BME280;22478;51.740;-1.314;2022-12-18T06:11:21;100496.76;;;-8.10;100.00
36454;BME280;22478;51.740;-1.314;2022-12-18T06:13:49;100487.65;;;-6.82;100.00
36454;BME280;22478;51.740;-1.314;2022-12-18T06:16:17;100492.87;;;-7.18;100.00
36454;BME280;22478;51.740;-1.314;2022-12-18T06:18:43;100487.05;;;-6.68;100.00
36454;BME280;22478;51.740;-1.314;2022-12-18T06:21:11;100478.40;;;-6.70;100.00
36454;BME280;22478;51.740;-1.314;2022-12-18T06:23:38;100469.68;;;-6.98;100.00
36454;BME280;22478;51.740;-1.314;2022-12-18T06:26:07;100462.64;;;-6.58;100.00
36454;BME280;22478;51.740;-1.314;2022-12-18T06:28:34;100468.61;;;-7.13;100.00
36454;BME280;22478;51.740;-1.314;2022-12-18T06:31:02;100475.39;;;-6.98;100.00
36454;BME280;22478;51.740;-1.314;2022-12-18T06:33:29;100468.14;;;-7.35;100.00
36454;BME280;22478;51.740;-1.314;2022-12-18T06:36:00;100468.02;;;-7.07;100.00
36454;BME280;22478;51.740;-1.314;2022-12-18T06:38:28;100460.97;;;-7.23;100.00
36454;BME280;22478;51.740;-1.314;2022-12-18T06:40:55;100471.73;;;-7.20;100.00
36454;BME280;22478;51.740;-1.314;2022-12-18T06:43:22;100468.93;;;-7.07;100.00
36454;BME280;22478;51.740;-1.314;2022-12-18T06:45:48;100474.08;;;-6.93;100.00
36454;BME280;22478;51.740;-1.314;2022-12-18T06:48:16;100474.61;;;-7.33;100.00
36454;BME280;22478;51.740;-1.314;2022-12-18T06:50:43;100471.90;;;-7.14;100.00
36454;BME280;22478;51.740;-1.314;2022-12-18T06:53:10;100479.46;;;-7.13;100.00
36454;BME280;22478;51.740;-1.314;2022-12-18T06:57:52;100475.09;;;-9.23;100.00
